sensor_id;sensor_type;location;lat;lon;timestamp;P1;durP1;ratioP1;P2;durP2;ratioP2
1174;SDS011;576;48.418;10.074;2024-01-25T00:00:32;3.23;;;1.70;;
1174;SDS011;576;48.418;10.074;2024-01-25T00:03:00;3.97;;;2.00;;
1174;SDS011;576;48.418;10.074;2024-01-25T00:05:30;4.80;;;1.73;;
1174;SDS011;576;48.418;10.074;2024-01-25T00:07:59;4.23;;;1.90;;
1174;SDS011;576;48.418;10.074;2024-01-25T00:10:27;3.30;;;1.93;;
1174;SDS011;576;48.418;10.074;2024-01-25T00:12:55;3.67;;;2.07;;
1174;SDS011;576;48.418;10.074;2024-01-25T00:15:23;4.07;;;2.40;;
1174;SDS011;576;48.418;10.074;2024-01-25T00:17:52;3.83;;;1.70;;
1174;SDS011;576;48.418;10.074;2024-01-25T00:20:20;7.20;;;2.27;;
1174;SDS011;576;48.418;10.074;2024-01-25T00:22:50;2.87;;;1.70;;
1174;SDS011;576;48.418;10.074;2024-01-25T00:25:18;3.37;;;1.60;;
1174;SDS011;576;48.418;10.074;2024-01-25T00:27:47;2.97;;;1.73;;
1174;SDS011;576;48.418;10.074;2024-01-25T00:30:16;2.20;;;1.77;;
1174;SDS011;576;48.418;10.074;2024-01-25T00:32:44;2.20;;;1.53;;
1174;SDS011;576;48.418;10.074;2024-01-25T00:35:13;4.63;;;1.50;;
1174;SDS011;576;48.418;10.074;2024-01-25T00:37:43;4.17;;;1.70;;
1174;SDS011;576;48.418;10.074;2024-01-25T00:40:13;3.17;;;1.60;;
1174;SDS011;576;48.418;10.074;2024-01-25T00:42:42;3.17;;;1.37;;
1174;SDS011;576;48.418;10.074;2024-01-25T00:45:15;3.60;;;1.80;;
1174;SDS011;576;48.418;10.074;2024-01-25T00:47:44;1.87;;;1.70;;
1174;SDS011;576;48.418;10.074;2024-01-25T00:50:13;2.73;;;1.53;;
1174;SDS011;576;48.418;10.074;2024-01-25T00:52:44;5.80;;;2.00;;
1174;SDS011;576;48.418;10.074;2024-01-25T00:55:15;6.00;;;2.00;;
1174;SDS011;576;48.418;10.074;2024-01-25T00:57:44;1.90;;;1.70;;
1174;SDS011;576;48.418;10.074;2024-01-25T01:00:13;2.20;;;1.70;;
1174;SDS011;576;48.418;10.074;2024-01-25T01:02:42;1.77;;;1.50;;
1174;SDS011;576;48.418;10.074;2024-01-25T01:05:12;3.00;;;2.13;;
1174;SDS011;576;48.418;10.074;2024-01-25T01:07:41;2.83;;;1.63;;
1174;SDS011;576;48.418;10.074;2024-01-25T01:10:11;3.53;;;1.53;;
1174;SDS011;576;48.418;10.074;2024-01-25T01:12:41;4.00;;;2.27;;
1174;SDS011;576;48.418;10.074;2024-01-25T01:15:10;2.93;;;1.80;;
1174;SDS011;576;48.418;10.074;2024-01-25T01:17:39;3.97;;;1.67;;
1174;SDS011;576;48.418;10.074;2024-01-25T01:20:08;1.50;;;1.13;;
1174;SDS011;576;48.418;10.074;2024-01-25T01:22:37;5.73;;;1.60;;
1174;SDS011;576;48.418;10.074;2024-01-25T01:25:06;2.03;;;1.83;;
1174;SDS011;576;48.418;10.074;2024-01-25T01:27:36;3.00;;;1.60;;
1174;SDS011;576;48.418;10.074;2024-01-25T01:30:04;2.83;;;1.60;;
1174;SDS011;576;48.418;10.074;2024-01-25T01:32:34;4.13;;;1.77;;
1174;SDS011;576;48.418;10.074;2024-01-25T01:35:03;4.70;;;2.30;;
1174;SDS011;576;48.418;10.074;2024-01-25T01:37:32;1.90;;;1.33;;
1174;SDS011;576;48.418;10.074;2024-01-25T01:40:01;3.67;;;1.37;;
1174;SDS011;576;48.418;10.074;2024-01-25T01:42:30;2.87;;;2.40;;
1174;SDS011;576;48.418;10.074;2024-01-25T01:45:00;5.30;;;1.97;;
1174;SDS011;576;48.418;10.074;2024-01-25T01:47:29;2.30;;;1.57;;
1174;SDS011;576;48.418;10.074;2024-01-25T01:49:57;2.20;;;1.40;;
1174;SDS011;576;48.418;10.074;2024-01-25T01:52:26;1.80;;;1.40;;
1174;SDS011;576;48.418;10.074;2024-01-25T01:54:54;3.73;;;1.57;;
1174;SDS011;576;48.418;10.074;2024-01-25T01:57:23;3.43;;;1.70;;
1174;SDS011;576;48.418;10.074;2024-01-25T01:59:53;2.67;;;1.43;;
1174;SDS011;576;48.418;10.074;2024-01-25T02:02:22;2.60;;;1.20;;
1174;SDS011;576;48.418;10.074;2024-01-25T02:04:51;2.77;;;1.33;;
1174;SDS011;576;48.418;10.074;2024-01-25T02:07:19;2.10;;;1.47;;
1174;SDS011;576;48.418;10.074;2024-01-25T02:09:48;2.50;;;1.20;;
1174;SDS011;576;48.418;10.074;2024-01-25T02:12:16;2.23;;;1.30;;
1174;SDS011;576;48.418;10.074;2024-01-25T02:14:45;2.60;;;1.40;;
1174;SDS011;576;48.418;10.074;2024-01-25T02:17:13;2.20;;;1.40;;
1174;SDS011;576;48.418;10.074;2024-01-25T02:19:43;2.40;;;1.50;;
1174;SDS011;576;48.418;10.074;2024-01-25T02:24:44;3.30;;;1.33;;
1174;SDS011;576;48.418;10.074;2024-01-25T02:27:13;2.63;;;1.43;;
1174;SDS011;576;48.418;10.074;2024-01-25T02:29:41;2.90;;;1.23;;
1174;SDS011;576;48.418;10.074;2024-01-25T02:32:10;2.57;;;1.40;;
1174;SDS011;576;48.418;10.074;2024-01-25T02:34:38;1.50;;;1.40;;
1174;SDS011;576;48.418;10.074;2024-01-25T02:37:07;3.67;;;1.50;;
1174;SDS011;576;48.418;10.074;2024-01-25T02:39:36;2.50;;;1.40;;
1174;SDS011;576;48.418;10.074;2024-01-25T02:42:05;1.77;;;1.37;;
1174;SDS011;576;48.418;10.074;2024-01-25T02:44:33;2.60;;;1.80;;
1174;SDS011;576;48.418;10.074;2024-01-25T02:47:01;1.80;;;1.23;;
1174;SDS011;576;48.418;10.074;2024-01-25T02:49:30;3.00;;;1.10;;
1174;SDS011;576;48.418;10.074;2024-01-25T02:51:58;4.70;;;1.87;;
1174;SDS011;576;48.418;10.074;2024-01-25T02:54:27;2.00;;;1.30;;
1174;SDS011;576;48.418;10.074;2024-01-25T02:56:56;1.97;;;1.37;;
1174;SDS011;576;48.418;10.074;2024-01-25T02:59:25;2.80;;;1.53;;
1174;SDS011;576;48.418;10.074;2024-01-25T03:01:53;2.77;;;1.10;;
1174;SDS011;576;48.418;10.074;2024-01-25T03:04:22;2.27;;;1.60;;
1174;SDS011;576;48.418;10.074;2024-01-25T03:06:51;2.20;;;1.23;;
1174;SDS011;576;48.418;10.074;2024-01-25T03:09:19;2.70;;;1.50;;
1174;SDS011;576;48.418;10.074;2024-01-25T03:11:50;2.80;;;1.57;;
1174;SDS011;576;48.418;10.074;2024-01-25T03:14:19;2.50;;;1.17;;
1174;SDS011;576;48.418;10.074;2024-01-25T03:16:48;3.73;;;1.37;;
1174;SDS011;576;48.418;10.074;2024-01-25T03:19:18;1.73;;;1.57;;
1174;SDS011;576;48.418;10.074;2024-01-25T03:21:46;2.03;;;0.93;;
1174;SDS011;576;48.418;10.074;2024-01-25T03:24:14;1.30;;;1.20;;
1174;SDS011;576;48.418;10.074;2024-01-25T03:26:43;3.93;;;1.67;;
1174;SDS011;576;48.418;10.074;2024-01-25T03:29:11;2.60;;;1.80;;
1174;SDS011;576;48.418;10.074;2024-01-25T03:31:41;2.13;;;0.93;;
1174;SDS011;576;48.418;10.074;2024-01-25T03:34:09;3.40;;;1.20;;
1174;SDS011;576;48.418;10.074;2024-01-25T03:36:37;1.63;;;1.30;;
1174;SDS011;576;48.418;10.074;2024-01-25T03:39:07;1.40;;;1.13;;
1174;SDS011;576;48.418;10.074;2024-01-25T03:41:35;1.93;;;1.07;;
1174;SDS011;576;48.418;10.074;2024-01-25T03:44:03;3.43;;;1.37;;
1174;SDS011;576;48.418;10.074;2024-01-25T03:46:32;2.53;;;1.00;;
1174;SDS011;576;48.418;10.074;2024-01-25T03:49:02;2.40;;;1.27;;
1174;SDS011;576;48.418;10.074;2024-01-25T03:51:31;2.20;;;1.33;;
1174;SDS011;576;48.418;10.074;2024-01-25T03:53:59;1.30;;;1.07;;
1174;SDS011;576;48.418;10.074;2024-01-25T03:56:27;1.30;;;1.20;;
1174;SDS011;576;48.418;10.074;2024-01-25T03:58:56;3.17;;;1.13;;
1174;SDS011;576;48.418;10.074;2024-01-25T04:01:24;1.30;;;0.77;;
1174;SDS011;576;48.418;10.074;2024-01-25T04:03:57;2.27;;;1.47;;
1174;SDS011;576;48.418;10.074;2024-01-25T04:06:27;1.70;;;1.00;;
1174;SDS011;576;48.418;10.074;2024-01-25T04:08:55;2.03;;;0.90;;
1174;SDS011;576;48.418;10.074;2024-01-25T04:11:24;1.40;;;1.13;;
1174;SDS011;576;48.418;10.074;2024-01-25T04:13:54;1.00;;;0.90;;
1174;SDS011;576;48.418;10.074;2024-01-25T04:16:22;2.80;;;0.93;;
1174;SDS011;576;48.418;10.074;2024-01-25T04:18:51;1.37;;;0.90;;
1174;SDS011;576;48.418;10.074;2024-01-25T04:21:19;2.57;;;1.00;;
1174;SDS011;576;48.418;10.074;2024-01-25T04:23:49;1.17;;;1.07;;
1174;SDS011;576;48.418;10.074;2024-01-25T04:26:17;2.23;;;1.03;;
1174;SDS011;576;48.418;10.074;2024-01-25T04:28:45;1.50;;;0.97;;
1174;SDS011;576;48.418;10.074;2024-01-25T04:31:14;3.20;;;1.20;;
1174;SDS011;576;48.418;10.074;2024-01-25T04:33:42;1.63;;;0.80;;
1174;SDS011;576;48.418;10.074;2024-01-25T04:36:14;1.87;;;1.20;;
1174;SDS011;576;48.418;10.074;2024-01-25T04:38:42;1.60;;;1.00;;
1174;SDS011;576;48.418;10.074;2024-01-25T04:41:12;2.00;;;1.07;;
1174;SDS011;576;48.418;10.074;2024-01-25T04:43:41;1.87;;;1.20;;
1174;SDS011;576;48.418;10.074;2024-01-25T04:46:09;1.30;;;0.80;;
1174;SDS011;576;48.418;10.074;2024-01-25T04:48:37;1.37;;;1.00;;
1174;SDS011;576;48.418;10.074;2024-01-25T04:51:06;3.43;;;1.00;;
1174;SDS011;576;48.418;10.074;2024-01-25T04:53:35;2.37;;;0.87;;
1174;SDS011;576;48.418;10.074;2024-01-25T04:56:03;1.77;;;0.80;;
1174;SDS011;576;48.418;10.074;2024-01-25T04:58:33;0.80;;;0.60;;
1174;SDS011;576;48.418;10.074;2024-01-25T05:01:04;1.00;;;0.70;;
1174;SDS011;576;48.418;10.074;2024-01-25T05:03:33;2.00;;;1.10;;
1174;SDS011;576;48.418;10.074;2024-01-25T05:06:02;1.67;;;1.23;;
1174;SDS011;576;48.418;10.074;2024-01-25T05:08:31;3.13;;;1.53;;
1174;SDS011;576;48.418;10.074;2024-01-25T05:10:59;1.60;;;1.03;;
1174;SDS011;576;48.418;10.074;2024-01-25T05:13:28;1.80;;;0.87;;
1174;SDS011;576;48.418;10.074;2024-01-25T05:15:57;1.53;;;1.10;;
1174;SDS011;576;48.418;10.074;2024-01-25T05:18:26;1.97;;;0.90;;
1174;SDS011;576;48.418;10.074;2024-01-25T05:20:54;2.27;;;1.30;;
1174;SDS011;576;48.418;10.074;2024-01-25T05:23:24;0.80;;;0.80;;
1174;SDS011;576;48.418;10.074;2024-01-25T05:25:53;3.30;;;1.00;;
1174;SDS011;576;48.418;10.074;2024-01-25T05:28:21;1.80;;;1.00;;
1174;SDS011;576;48.418;10.074;2024-01-25T05:30:50;1.93;;;1.00;;
1174;SDS011;576;48.418;10.074;2024-01-25T05:33:20;3.73;;;1.20;;
1174;SDS011;576;48.418;10.074;2024-01-25T05:35:49;1.27;;;0.90;;
1174;SDS011;576;48.418;10.074;2024-01-25T05:38:17;0.90;;;0.73;;
1174;SDS011;576;48.418;10.074;2024-01-25T05:40:45;1.10;;;0.90;;
1174;SDS011;576;48.418;10.074;2024-01-25T05:43:13;1.00;;;0.73;;
1174;SDS011;576;48.418;10.074;2024-01-25T05:45:42;2.37;;;1.10;;
1174;SDS011;576;48.418;10.074;2024-01-25T05:48:10;1.43;;;1.33;;
1174;SDS011;576;48.418;10.074;2024-01-25T05:50:40;2.27;;;1.30;;
1174;SDS011;576;48.418;10.074;2024-01-25T05:53:10;1.70;;;1.03;;
1174;SDS011;576;48.418;10.074;2024-01-25T05:55:39;2.20;;;0.90;;
1174;SDS011;576;48.418;10.074;2024-01-25T05:58:07;2.13;;;1.30;;
1174;SDS011;576;48.418;10.074;2024-01-25T06:00:35;2.90;;;1.63;;
1174;SDS011;576;48.418;10.074;2024-01-25T06:03:04;1.10;;;0.80;;
1174;SDS011;576;48.418;10.074;2024-01-25T06:05:32;1.57;;;0.87;;
1174;SDS011;576;48.418;10.074;2024-01-25T06:08:02;2.77;;;1.37;;
1174;SDS011;576;48.418;10.074;2024-01-25T06:10:31;1.33;;;0.87;;
1174;SDS011;576;48.418;10.074;2024-01-25T06:13:00;2.30;;;1.03;;
1174;SDS011;576;48.418;10.074;2024-01-25T06:15:28;1.07;;;0.83;;
1174;SDS011;576;48.418;10.074;2024-01-25T06:17:58;2.60;;;0.90;;
1174;SDS011;576;48.418;10.074;2024-01-25T06:20:26;1.53;;;0.87;;
1174;SDS011;576;48.418;10.074;2024-01-25T06:22:55;3.00;;;1.00;;
1174;SDS011;576;48.418;10.074;2024-01-25T06:25:24;0.80;;;0.80;;
1174;SDS011;576;48.418;10.074;2024-01-25T06:27:57;2.87;;;1.27;;
1174;SDS011;576;48.418;10.074;2024-01-25T06:30:27;2.73;;;1.20;;
1174;SDS011;576;48.418;10.074;2024-01-25T06:32:55;1.60;;;0.83;;
1174;SDS011;576;48.418;10.074;2024-01-25T06:35:23;3.77;;;1.20;;
1174;SDS011;576;48.418;10.074;2024-01-25T06:37:52;4.20;;;1.20;;
1174;SDS011;576;48.418;10.074;2024-01-25T06:40:20;4.03;;;1.10;;
1174;SDS011;576;48.418;10.074;2024-01-25T06:42:49;3.90;;;1.37;;
1174;SDS011;576;48.418;10.074;2024-01-25T06:45:17;1.53;;;1.43;;
1174;SDS011;576;48.418;10.074;2024-01-25T06:47:46;1.50;;;1.10;;
1174;SDS011;576;48.418;10.074;2024-01-25T06:50:14;2.20;;;1.00;;
1174;SDS011;576;48.418;10.074;2024-01-25T06:52:43;2.07;;;0.77;;
1174;SDS011;576;48.418;10.074;2024-01-25T06:55:11;2.87;;;1.43;;
1174;SDS011;576;48.418;10.074;2024-01-25T06:57:40;2.00;;;1.10;;
1174;SDS011;576;48.418;10.074;2024-01-25T07:00:10;1.40;;;1.20;;
1174;SDS011;576;48.418;10.074;2024-01-25T07:02:42;2.20;;;1.10;;
1174;SDS011;576;48.418;10.074;2024-01-25T07:05:11;3.63;;;1.60;;
1174;SDS011;576;48.418;10.074;2024-01-25T07:07:40;1.50;;;1.30;;
1174;SDS011;576;48.418;10.074;2024-01-25T07:10:08;2.00;;;1.77;;
1174;SDS011;576;48.418;10.074;2024-01-25T07:12:37;1.33;;;1.17;;
1174;SDS011;576;48.418;10.074;2024-01-25T07:15:05;2.93;;;1.10;;
1174;SDS011;576;48.418;10.074;2024-01-25T07:17:36;2.37;;;1.30;;
1174;SDS011;576;48.418;10.074;2024-01-25T07:20:04;1.90;;;1.20;;
1174;SDS011;576;48.418;10.074;2024-01-25T07:22:34;2.40;;;1.60;;
1174;SDS011;576;48.418;10.074;2024-01-25T07:25:02;2.73;;;1.90;;
1174;SDS011;576;48.418;10.074;2024-01-25T07:27:31;2.53;;;1.50;;
1174;SDS011;576;48.418;10.074;2024-01-25T07:29:59;2.00;;;1.47;;
1174;SDS011;576;48.418;10.074;2024-01-25T07:32:28;2.30;;;1.53;;
1174;SDS011;576;48.418;10.074;2024-01-25T07:34:58;5.17;;;1.83;;
1174;SDS011;576;48.418;10.074;2024-01-25T07:37:27;6.13;;;1.57;;
1174;SDS011;576;48.418;10.074;2024-01-25T07:39:55;2.90;;;1.43;;
1174;SDS011;576;48.418;10.074;2024-01-25T07:42:23;2.30;;;1.50;;
1174;SDS011;576;48.418;10.074;2024-01-25T07:44:52;1.67;;;1.57;;
1174;SDS011;576;48.418;10.074;2024-01-25T07:47:20;2.07;;;1.50;;
1174;SDS011;576;48.418;10.074;2024-01-25T07:49:48;1.87;;;1.33;;
1174;SDS011;576;48.418;10.074;2024-01-25T07:52:18;3.23;;;1.70;;
1174;SDS011;576;48.418;10.074;2024-01-25T07:54:49;3.30;;;1.47;;
1174;SDS011;576;48.418;10.074;2024-01-25T07:57:17;2.33;;;1.53;;
1174;SDS011;576;48.418;10.074;2024-01-25T07:59:45;1.70;;;1.60;;
1174;SDS011;576;48.418;10.074;2024-01-25T08:02:14;2.53;;;1.90;;
1174;SDS011;576;48.418;10.074;2024-01-25T08:04:47;2.73;;;1.63;;
1174;SDS011;576;48.418;10.074;2024-01-25T08:07:15;2.83;;;2.40;;
1174;SDS011;576;48.418;10.074;2024-01-25T08:09:46;3.20;;;2.20;;
1174;SDS011;576;48.418;10.074;2024-01-25T08:12:18;3.77;;;2.00;;
1174;SDS011;576;48.418;10.074;2024-01-25T08:14:46;2.00;;;1.43;;
1174;SDS011;576;48.418;10.074;2024-01-25T08:17:14;3.07;;;1.60;;
1174;SDS011;576;48.418;10.074;2024-01-25T08:19:43;1.87;;;1.43;;
1174;SDS011;576;48.418;10.074;2024-01-25T08:22:18;5.80;;;2.17;;
1174;SDS011;576;48.418;10.074;2024-01-25T08:24:49;5.13;;;2.20;;
1174;SDS011;576;48.418;10.074;2024-01-25T08:27:17;4.50;;;2.30;;
1174;SDS011;576;48.418;10.074;2024-01-25T08:29:45;7.33;;;2.50;;
1174;SDS011;576;48.418;10.074;2024-01-25T08:32:14;6.40;;;2.70;;
1174;SDS011;576;48.418;10.074;2024-01-25T08:34:42;7.93;;;3.63;;
1174;SDS011;576;48.418;10.074;2024-01-25T08:37:10;6.80;;;2.73;;
1174;SDS011;576;48.418;10.074;2024-01-25T08:39:40;8.63;;;5.13;;
1174;SDS011;576;48.418;10.074;2024-01-25T08:42:09;7.83;;;2.90;;
1174;SDS011;576;48.418;10.074;2024-01-25T08:44:38;6.13;;;2.83;;
1174;SDS011;576;48.418;10.074;2024-01-25T08:47:11;6.13;;;3.00;;
1174;SDS011;576;48.418;10.074;2024-01-25T08:49:42;4.83;;;2.80;;
1174;SDS011;576;48.418;10.074;2024-01-25T08:52:11;8.97;;;2.67;;
1174;SDS011;576;48.418;10.074;2024-01-25T08:54:41;5.97;;;2.60;;
1174;SDS011;576;48.418;10.074;2024-01-25T08:57:10;5.57;;;2.23;;
1174;SDS011;576;48.418;10.074;2024-01-25T08:59:38;4.37;;;2.40;;
1174;SDS011;576;48.418;10.074;2024-01-25T09:02:06;4.53;;;2.90;;
1174;SDS011;576;48.418;10.074;2024-01-25T09:04:35;3.30;;;2.27;;
1174;SDS011;576;48.418;10.074;2024-01-25T09:07:04;7.03;;;2.30;;
1174;SDS011;576;48.418;10.074;2024-01-25T09:09:32;5.47;;;2.43;;
1174;SDS011;576;48.418;10.074;2024-01-25T09:12:04;7.97;;;2.43;;
1174;SDS011;576;48.418;10.074;2024-01-25T09:14:34;5.50;;;1.80;;
1174;SDS011;576;48.418;10.074;2024-01-25T09:17:03;3.40;;;2.30;;
1174;SDS011;576;48.418;10.074;2024-01-25T09:19:32;5.03;;;2.10;;
1174;SDS011;576;48.418;10.074;2024-01-25T09:22:00;3.77;;;2.00;;
1174;SDS011;576;48.418;10.074;2024-01-25T09:24:31;7.00;;;1.83;;
1174;SDS011;576;48.418;10.074;2024-01-25T09:27:04;3.10;;;1.90;;
1174;SDS011;576;48.418;10.074;2024-01-25T09:29:32;9.00;;;2.50;;
1174;SDS011;576;48.418;10.074;2024-01-25T09:32:00;5.77;;;2.83;;
1174;SDS011;576;48.418;10.074;2024-01-25T09:34:29;6.80;;;2.50;;
1174;SDS011;576;48.418;10.074;2024-01-25T09:37:00;2.90;;;2.07;;
1174;SDS011;576;48.418;10.074;2024-01-25T09:39:29;3.00;;;1.60;;
1174;SDS011;576;48.418;10.074;2024-01-25T09:41:57;4.57;;;2.00;;
1174;SDS011;576;48.418;10.074;2024-01-25T09:44:27;3.87;;;2.23;;
1174;SDS011;576;48.418;10.074;2024-01-25T09:46:55;4.47;;;1.73;;
1174;SDS011;576;48.418;10.074;2024-01-25T09:49:25;4.43;;;2.30;;
1174;SDS011;576;48.418;10.074;2024-01-25T09:51:53;2.60;;;1.63;;
1174;SDS011;576;48.418;10.074;2024-01-25T09:54:23;4.13;;;2.30;;
1174;SDS011;576;48.418;10.074;2024-01-25T09:56:54;2.20;;;1.60;;
1174;SDS011;576;48.418;10.074;2024-01-25T09:59:23;2.87;;;1.80;;
1174;SDS011;576;48.418;10.074;2024-01-25T10:01:53;3.20;;;1.90;;
1174;SDS011;576;48.418;10.074;2024-01-25T10:04:21;3.50;;;1.70;;
1174;SDS011;576;48.418;10.074;2024-01-25T10:06:51;7.13;;;2.70;;
1174;SDS011;576;48.418;10.074;2024-01-25T10:09:23;3.13;;;1.77;;
1174;SDS011;576;48.418;10.074;2024-01-25T10:11:51;2.67;;;1.40;;
1174;SDS011;576;48.418;10.074;2024-01-25T10:14:36;2.83;;;2.30;;
1174;SDS011;576;48.418;10.074;2024-01-25T10:17:05;1.60;;;1.40;;
1174;SDS011;576;48.418;10.074;2024-01-25T10:19:34;2.53;;;1.80;;
1174;SDS011;576;48.418;10.074;2024-01-25T10:22:04;2.27;;;1.70;;
1174;SDS011;576;48.418;10.074;2024-01-25T10:24:36;3.23;;;1.73;;
1174;SDS011;576;48.418;10.074;2024-01-25T10:27:04;3.93;;;1.87;;
1174;SDS011;576;48.418;10.074;2024-01-25T10:29:34;2.33;;;1.50;;
1174;SDS011;576;48.418;10.074;2024-01-25T10:32:02;1.93;;;1.80;;
1174;SDS011;576;48.418;10.074;2024-01-25T10:34:33;3.00;;;1.53;;
1174;SDS011;576;48.418;10.074;2024-01-25T10:37:05;2.57;;;1.70;;
1174;SDS011;576;48.418;10.074;2024-01-25T10:39:35;4.30;;;1.93;;
1174;SDS011;576;48.418;10.074;2024-01-25T10:42:03;2.10;;;1.50;;
1174;SDS011;576;48.418;10.074;2024-01-25T10:44:32;2.57;;;1.37;;
1174;SDS011;576;48.418;10.074;2024-01-25T10:47:01;2.07;;;1.57;;
1174;SDS011;576;48.418;10.074;2024-01-25T10:49:29;4.10;;;1.90;;
1174;SDS011;576;48.418;10.074;2024-01-25T10:52:00;2.13;;;1.50;;
1174;SDS011;576;48.418;10.074;2024-01-25T10:54:29;2.83;;;1.70;;
1174;SDS011;576;48.418;10.074;2024-01-25T10:56:58;1.40;;;1.30;;
1174;SDS011;576;48.418;10.074;2024-01-25T10:59:26;4.90;;;1.73;;
1174;SDS011;576;48.418;10.074;2024-01-25T11:01:56;3.53;;;1.90;;
1174;SDS011;576;48.418;10.074;2024-01-25T11:04:25;2.07;;;1.57;;
1174;SDS011;576;48.418;10.074;2024-01-25T11:06:53;2.60;;;1.80;;
1174;SDS011;576;48.418;10.074;2024-01-25T11:09:33;2.77;;;2.10;;
1174;SDS011;576;48.418;10.074;2024-01-25T11:12:09;2.30;;;1.30;;
1174;SDS011;576;48.418;10.074;2024-01-25T11:14:40;2.90;;;1.87;;
1174;SDS011;576;48.418;10.074;2024-01-25T11:17:15;2.00;;;1.60;;
1174;SDS011;576;48.418;10.074;2024-01-25T11:19:46;1.43;;;1.33;;
1174;SDS011;576;48.418;10.074;2024-01-25T11:22:16;2.40;;;1.63;;
1174;SDS011;576;48.418;10.074;2024-01-25T11:24:47;2.33;;;1.33;;
1174;SDS011;576;48.418;10.074;2024-01-25T11:27:18;2.30;;;1.27;;
1174;SDS011;576;48.418;10.074;2024-01-25T11:29:46;2.17;;;1.20;;
1174;SDS011;576;48.418;10.074;2024-01-25T11:32:15;2.07;;;1.20;;
1174;SDS011;576;48.418;10.074;2024-01-25T11:34:44;2.07;;;1.50;;
1174;SDS011;576;48.418;10.074;2024-01-25T11:37:13;2.57;;;1.20;;
1174;SDS011;576;48.418;10.074;2024-01-25T11:39:44;2.07;;;1.40;;
1174;SDS011;576;48.418;10.074;2024-01-25T11:42:14;1.93;;;1.80;;
1174;SDS011;576;48.418;10.074;2024-01-25T11:44:43;2.20;;;1.13;;
1174;SDS011;576;48.418;10.074;2024-01-25T11:47:11;3.03;;;1.87;;
1174;SDS011;576;48.418;10.074;2024-01-25T11:49:40;3.37;;;1.80;;
1174;SDS011;576;48.418;10.074;2024-01-25T11:52:08;2.17;;;1.27;;
1174;SDS011;576;48.418;10.074;2024-01-25T11:54:37;3.10;;;1.47;;
1174;SDS011;576;48.418;10.074;2024-01-25T11:57:05;2.80;;;1.70;;
1174;SDS011;576;48.418;10.074;2024-01-25T11:59:35;2.70;;;1.70;;
1174;SDS011;576;48.418;10.074;2024-01-25T12:02:04;2.80;;;1.90;;
1174;SDS011;576;48.418;10.074;2024-01-25T12:04:33;2.00;;;1.10;;
1174;SDS011;576;48.418;10.074;2024-01-25T12:07:03;2.60;;;1.20;;
1174;SDS011;576;48.418;10.074;2024-01-25T12:09:32;3.67;;;1.53;;
1174;SDS011;576;48.418;10.074;2024-01-25T12:12:01;2.60;;;1.43;;
1174;SDS011;576;48.418;10.074;2024-01-25T12:14:29;2.00;;;1.60;;
1174;SDS011;576;48.418;10.074;2024-01-25T12:16:59;2.80;;;1.13;;
1174;SDS011;576;48.418;10.074;2024-01-25T12:19:27;2.40;;;1.40;;
1174;SDS011;576;48.418;10.074;2024-01-25T12:21:56;3.03;;;1.60;;
1174;SDS011;576;48.418;10.074;2024-01-25T12:24:25;2.03;;;1.43;;
1174;SDS011;576;48.418;10.074;2024-01-25T12:26:54;1.90;;;1.50;;
1174;SDS011;576;48.418;10.074;2024-01-25T12:29:24;1.80;;;1.37;;
1174;SDS011;576;48.418;10.074;2024-01-25T12:31:52;2.83;;;1.40;;
1174;SDS011;576;48.418;10.074;2024-01-25T12:34:22;4.20;;;2.13;;
1174;SDS011;576;48.418;10.074;2024-01-25T12:36:50;1.70;;;1.40;;
1174;SDS011;576;48.418;10.074;2024-01-25T12:39:19;2.90;;;1.83;;
1174;SDS011;576;48.418;10.074;2024-01-25T12:41:47;2.70;;;1.80;;
1174;SDS011;576;48.418;10.074;2024-01-25T12:44:17;3.00;;;2.03;;
1174;SDS011;576;48.418;10.074;2024-01-25T12:46:45;3.27;;;2.33;;
1174;SDS011;576;48.418;10.074;2024-01-25T12:49:14;4.00;;;2.40;;
1174;SDS011;576;48.418;10.074;2024-01-25T12:51:44;5.20;;;2.63;;
1174;SDS011;576;48.418;10.074;2024-01-25T12:54:14;6.30;;;2.10;;
1174;SDS011;576;48.418;10.074;2024-01-25T12:56:43;7.50;;;2.60;;
1174;SDS011;576;48.418;10.074;2024-01-25T12:59:11;6.67;;;2.63;;
1174;SDS011;576;48.418;10.074;2024-01-25T13:01:40;4.23;;;2.33;;
1174;SDS011;576;48.418;10.074;2024-01-25T13:04:09;4.60;;;2.40;;
1174;SDS011;576;48.418;10.074;2024-01-25T13:06:37;5.00;;;2.00;;
1174;SDS011;576;48.418;10.074;2024-01-25T13:09:07;3.93;;;2.07;;
1174;SDS011;576;48.418;10.074;2024-01-25T13:11:36;10.43;;;2.17;;
1174;SDS011;576;48.418;10.074;2024-01-25T13:14:05;3.73;;;2.30;;
1174;SDS011;576;48.418;10.074;2024-01-25T13:16:34;5.77;;;2.60;;
1174;SDS011;576;48.418;10.074;2024-01-25T13:19:02;4.53;;;2.80;;
1174;SDS011;576;48.418;10.074;2024-01-25T13:21:30;6.57;;;2.23;;
1174;SDS011;576;48.418;10.074;2024-01-25T13:23:59;9.67;;;2.60;;
1174;SDS011;576;48.418;10.074;2024-01-25T13:26:29;4.20;;;1.97;;
1174;SDS011;576;48.418;10.074;2024-01-25T13:28:57;3.03;;;1.80;;
1174;SDS011;576;48.418;10.074;2024-01-25T13:31:26;3.50;;;1.80;;
1174;SDS011;576;48.418;10.074;2024-01-25T13:33:54;6.07;;;2.50;;
1174;SDS011;576;48.418;10.074;2024-01-25T13:36:23;7.90;;;2.23;;
1174;SDS011;576;48.418;10.074;2024-01-25T13:38:51;3.50;;;1.87;;
1174;SDS011;576;48.418;10.074;2024-01-25T13:41:19;4.53;;;2.40;;
1174;SDS011;576;48.418;10.074;2024-01-25T13:43:49;4.47;;;2.20;;
1174;SDS011;576;48.418;10.074;2024-01-25T13:46:17;3.60;;;2.40;;
1174;SDS011;576;48.418;10.074;2024-01-25T13:48:48;9.20;;;2.10;;
1174;SDS011;576;48.418;10.074;2024-01-25T13:51:17;6.53;;;2.53;;
1174;SDS011;576;48.418;10.074;2024-01-25T13:53:46;7.20;;;2.33;;
1174;SDS011;576;48.418;10.074;2024-01-25T13:56:16;2.83;;;1.40;;
1174;SDS011;576;48.418;10.074;2024-01-25T13:58:44;4.40;;;2.03;;
1174;SDS011;576;48.418;10.074;2024-01-25T14:01:14;4.37;;;1.83;;
1174;SDS011;576;48.418;10.074;2024-01-25T14:03:42;5.03;;;2.50;;
1174;SDS011;576;48.418;10.074;2024-01-25T14:06:11;3.27;;;2.27;;
1174;SDS011;576;48.418;10.074;2024-01-25T14:08:40;2.80;;;2.10;;
1174;SDS011;576;48.418;10.074;2024-01-25T14:11:09;3.30;;;1.90;;
1174;SDS011;576;48.418;10.074;2024-01-25T14:13:37;4.10;;;1.93;;
1174;SDS011;576;48.418;10.074;2024-01-25T14:16:06;3.73;;;2.00;;
1174;SDS011;576;48.418;10.074;2024-01-25T14:18:38;4.20;;;1.77;;
1174;SDS011;576;48.418;10.074;2024-01-25T14:21:10;3.07;;;2.20;;
1174;SDS011;576;48.418;10.074;2024-01-25T14:23:42;3.37;;;2.10;;
1174;SDS011;576;48.418;10.074;2024-01-25T14:26:11;4.60;;;1.70;;
1174;SDS011;576;48.418;10.074;2024-01-25T14:28:40;3.80;;;1.90;;
1174;SDS011;576;48.418;10.074;2024-01-25T14:31:08;5.53;;;2.10;;
1174;SDS011;576;48.418;10.074;2024-01-25T14:33:38;4.97;;;1.77;;
1174;SDS011;576;48.418;10.074;2024-01-25T14:36:11;4.67;;;2.37;;
1174;SDS011;576;48.418;10.074;2024-01-25T14:38:41;2.87;;;1.70;;
1174;SDS011;576;48.418;10.074;2024-01-25T14:41:09;4.40;;;1.73;;
1174;SDS011;576;48.418;10.074;2024-01-25T14:43:38;2.30;;;1.67;;
1174;SDS011;576;48.418;10.074;2024-01-25T14:46:07;4.57;;;1.67;;
1174;SDS011;576;48.418;10.074;2024-01-25T14:48:35;6.23;;;2.07;;
1174;SDS011;576;48.418;10.074;2024-01-25T14:51:05;2.30;;;1.60;;
1174;SDS011;576;48.418;10.074;2024-01-25T14:53:34;3.40;;;2.20;;
1174;SDS011;576;48.418;10.074;2024-01-25T14:56:02;5.23;;;2.33;;
1174;SDS011;576;48.418;10.074;2024-01-25T14:58:31;8.27;;;2.30;;
1174;SDS011;576;48.418;10.074;2024-01-25T15:00:59;4.80;;;2.70;;
1174;SDS011;576;48.418;10.074;2024-01-25T15:03:28;3.30;;;2.20;;
1174;SDS011;576;48.418;10.074;2024-01-25T15:05:57;4.43;;;1.73;;
1174;SDS011;576;48.418;10.074;2024-01-25T15:08:28;3.37;;;1.60;;
1174;SDS011;576;48.418;10.074;2024-01-25T15:10:56;6.83;;;1.83;;
1174;SDS011;576;48.418;10.074;2024-01-25T15:13:24;3.23;;;1.60;;
1174;SDS011;576;48.418;10.074;2024-01-25T15:15:53;3.03;;;1.73;;
1174;SDS011;576;48.418;10.074;2024-01-25T15:18:21;1.83;;;1.50;;
1174;SDS011;576;48.418;10.074;2024-01-25T15:20:50;8.53;;;1.77;;
1174;SDS011;576;48.418;10.074;2024-01-25T15:23:19;3.27;;;2.10;;
1174;SDS011;576;48.418;10.074;2024-01-25T15:25:49;3.73;;;1.77;;
1174;SDS011;576;48.418;10.074;2024-01-25T15:28:17;2.30;;;1.50;;